Time;durP1;ratioP1;P1;durP2;ratioP2;P2;SDS_P1;SDS_P2;PMS_P1;PMS_P2;Temp;Humidity;BMP_temperature;BMP_pressure;BME280_temperature;BME280_humidity;BME280_pressure;Samples;Min_cycle;Max_cycle;Signal;HPM_P1;HPM_P2
2021/08/03 00:02:05;;;;;;;1.58;0.90;;;25.00;50.30;;;;;;5027224;28;20144;-62
2021/08/03 00:04:42;;;;;;;2.20;1.00;;;24.90;50.20;;;;;;5033508;28;20087;-64
2021/08/03 00:07:14;;;;;;;1.52;1.00;;;25.00;50.80;;;;;;5035929;28;20460;-62
2021/08/03 00:09:41;;;;;;;1.35;0.88;;;25.00;50.40;;;;;;5026130;28;20033;-62
2021/08/03 00:12:10;;;;;;;1.40;0.80;;;24.90;50.30;;;;;;5025619;28;20032;-59
2021/08/03 00:14:41;;;;;;;1.80;0.98;;;24.90;50.40;;;;;;5013322;28;20037;-62
2021/08/03 00:17:09;;;;;;;1.27;0.90;;;24.90;50.40;;;;;;5023581;28;20041;-63
2021/08/03 00:19:35;;;;;;;1.15;0.75;;;24.90;50.40;;;;;;5028756;28;20136;-64
2021/08/03 00:22:00;;;;;;;1.38;0.80;;;24.90;50.40;;;;;;5027843;28;20144;-63
2021/08/03 00:24:27;;;;;;;1.55;0.88;;;24.90;50.40;;;;;;5027842;28;20108;-62
2021/08/03 00:26:53;;;;;;;1.55;0.82;;;24.90;50.40;;;;;;5027054;28;20037;-63
2021/08/03 00:29:18;;;;;;;1.48;0.80;;;24.90;50.40;;;;;;5038445;28;20051;-61
2021/08/03 00:31:44;;;;;;;1.73;0.98;;;24.90;50.40;;;;;;5026030;28;20187;-62
2021/08/03 00:34:11;;;;;;;1.10;0.77;;;24.90;50.50;;;;;;5030562;28;20030;-62
2021/08/03 00:36:36;;;;;;;1.70;1.00;;;24.90;50.50;;;;;;5046827;28;20131;-63
2021/08/03 00:39:02;;;;;;;1.42;0.80;;;24.90;50.50;;;;;;5030646;28;20115;-63
2021/08/03 00:41:39;;;;;;;2.55;0.80;;;24.90;50.50;;;;;;5025940;28;20033;-62
2021/08/03 00:44:05;;;;;;;1.35;0.95;;;24.90;50.50;;;;;;5037774;28;20064;-63
2021/08/03 00:46:30;;;;;;;2.08;0.82;;;24.90;50.50;;;;;;5032343;28;20809;-59
2021/08/03 00:48:56;;;;;;;0.90;0.77;;;24.80;50.50;;;;;;5028571;28;20049;-59
2021/08/03 00:51:21;;;;;;;1.35;0.82;;;24.80;50.50;;;;;;5026511;28;20024;-64
2021/08/03 00:53:48;;;;;;;1.08;0.75;;;24.80;50.50;;;;;;5032845;28;20395;-62
2021/08/03 00:56:14;;;;;;;1.30;0.70;;;24.80;50.50;;;;;;5032267;28;20037;-58
2021/08/03 00:58:39;;;;;;;1.35;0.90;;;24.80;50.50;;;;;;5036523;28;20033;-62
2021/08/03 01:01:05;;;;;;;1.35;0.80;;;24.80;50.50;;;;;;5026164;28;20132;-62
2021/08/03 01:03:31;;;;;;;1.30;0.80;;;24.80;50.60;;;;;;5032126;28;20048;-64
2021/08/03 01:06:08;;;;;;;2.28;0.88;;;24.80;50.60;;;;;;5015379;28;20029;-62
2021/08/03 01:08:44;;;;;;;1.00;0.77;;;24.80;50.60;;;;;;5028178;28;20047;-63
2021/08/03 01:11:23;;;;;;;1.33;0.75;;;24.80;50.60;;;;;;5009507;28;20021;-63
2021/08/03 01:14:13;;;;;;;1.35;0.88;;;24.80;50.70;;;;;;5029158;28;20033;-64
2021/08/03 01:17:07;;;;;;;1.30;0.77;;;24.80;50.60;;;;;;5013928;28;20112;-62
2021/08/03 01:19:35;;;;;;;1.65;0.80;;;24.80;51.20;;;;;;5033046;28;20037;-64
2021/08/03 01:22:28;;;;;;;1.52;0.70;;;24.80;50.70;;;;;;5040786;28;20037;-61
2021/08/03 01:25:20;;;;;;;1.50;0.75;;;24.80;50.70;;;;;;5025414;28;20025;-63
2021/08/03 01:28:07;;;;;;;1.63;0.80;;;24.80;50.70;;;;;;5020609;28;20059;-59
2021/08/03 01:30:36;;;;;;;1.58;0.95;;;24.70;50.70;;;;;;5023853;28;20167;-63
2021/08/03 01:33:02;;;;;;;0.90;0.80;;;24.70;50.70;;;;;;5026377;28;20128;-59
2021/08/03 01:35:29;;;;;;;1.35;0.80;;;24.70;50.70;;;;;;5019496;28;20037;-63
2021/08/03 01:37:59;;;;;;;1.15;0.75;;;24.70;50.70;;;;;;5027348;28;20037;-63
2021/08/03 01:40:27;;;;;;;1.40;0.80;;;24.70;50.70;;;;;;5030143;28;20143;-64
2021/08/03 01:42:53;;;;;;;1.17;0.60;;;24.70;50.70;;;;;;5031132;28;20108;-63
2021/08/03 01:45:19;;;;;;;1.02;0.70;;;24.70;51.30;;;;;;5026604;28;20037;-60
2021/08/03 01:47:45;;;;;;;0.88;0.60;;;24.70;50.80;;;;;;5020400;28;20041;-63
2021/08/03 01:50:12;;;;;;;0.85;0.70;;;24.70;50.70;;;;;;5026875;28;20360;-63
2021/08/03 01:52:39;;;;;;;0.80;0.70;;;24.70;50.80;;;;;;5029445;28;20029;-60
2021/08/03 01:55:07;;;;;;;1.45;0.80;;;24.70;50.80;;;;;;5037494;28;20029;-63
2021/08/03 01:57:33;;;;;;;0.80;0.70;;;24.70;50.80;;;;;;5031212;28;20029;-65
2021/08/03 02:00:00;;;;;;;1.23;0.70;;;24.70;50.80;;;;;;5033716;28;20132;-62
2021/08/03 02:02:26;;;;;;;1.27;0.70;;;24.70;50.80;;;;;;5029455;28;20033;-64
2021/08/03 02:04:54;;;;;;;1.40;0.80;;;24.70;50.90;;;;;;5039067;28;20121;-65
2021/08/03 02:07:21;;;;;;;1.40;0.80;;;24.70;51.00;;;;;;5028700;28;20058;-62
2021/08/03 02:09:49;;;;;;;1.00;0.60;;;24.70;50.90;;;;;;5040230;28;20036;-63
2021/08/03 02:12:15;;;;;;;1.27;0.70;;;24.70;50.90;;;;;;5038233;28;20052;-62
2021/08/03 02:14:47;;;;;;;1.15;0.80;;;24.60;50.80;;;;;;5031550;28;20603;-62
2021/08/03 02:17:18;;;;;;;1.15;0.70;;;24.60;50.80;;;;;;5030594;28;20029;-62
2021/08/03 02:19:45;;;;;;;0.98;0.70;;;24.60;51.30;;;;;;5031081;28;20575;-64
2021/08/03 02:22:11;;;;;;;1.42;1.15;;;24.60;50.80;;;;;;5038563;28;20061;-63
2021/08/03 02:24:38;;;;;;;1.13;0.70;;;24.60;50.80;;;;;;5031905;28;20120;-61
2021/08/03 02:27:05;;;;;;;1.23;0.80;;;24.60;50.90;;;;;;5029070;28;20037;-58
2021/08/03 02:29:31;;;;;;;1.13;0.70;;;24.60;50.90;;;;;;5036672;28;20376;-63
2021/08/03 02:32:09;;;;;;;1.15;0.75;;;24.60;50.90;;;;;;5031233;28;20145;-63
2021/08/03 02:34:57;;;;;;;0.98;0.70;;;24.60;50.90;;;;;;5035520;28;20079;-57
2021/08/03 02:37:46;;;;;;;1.23;0.70;;;24.60;50.90;;;;;;5033290;28;20763;-64
2021/08/03 02:40:12;;;;;;;;;;;24.60;50.90;;;;;;5035216;28;20053;-58
2021/08/03 02:42:38;;;;;;;0.82;0.65;;;24.60;50.90;;;;;;5035073;28;19923;-63
2021/08/03 02:45:05;;;;;;;1.27;0.80;;;24.60;50.90;;;;;;5049363;28;20041;-62
2021/08/03 02:47:44;;;;;;;1.50;0.70;;;24.60;50.90;;;;;;5040734;28;20034;-59
2021/08/03 02:50:10;;;;;;;1.13;0.70;;;24.60;51.00;;;;;;5019525;28;20040;-55
2021/08/03 02:52:39;;;;;;;1.42;0.80;;;24.60;51.00;;;;;;5032998;28;20036;-64
2021/08/03 02:55:22;;;;;;;1.30;0.80;;;24.60;51.00;;;;;;5036743;28;20029;-64
2021/08/03 02:57:56;;;;;;;0.85;0.70;;;24.60;51.00;;;;;;5031511;28;20382;-62
2021/08/03 03:00:23;;;;;;;0.77;0.60;;;24.60;51.50;;;;;;5047277;28;20480;-59
2021/08/03 03:02:50;;;;;;;1.15;0.70;;;24.50;51.00;;;;;;5030281;28;20038;-62
2021/08/03 03:05:23;;;;;;;0.90;0.70;;;24.50;51.00;;;;;;5028645;28;20037;-62
2021/08/03 03:07:55;;;;;;;0.90;0.60;;;24.50;51.00;;;;;;5027732;28;20185;-63
2021/08/03 03:10:26;;;;;;;0.93;0.60;;;24.50;51.00;;;;;;5029487;28;20084;-62
2021/08/03 03:13:04;;;;;;;1.00;0.70;;;24.50;51.00;;;;;;5030007;28;20465;-60
2021/08/03 03:15:31;;;;;;;1.02;0.65;;;24.50;51.00;;;;;;5024708;28;20018;-63
2021/08/03 03:17:57;;;;;;;0.90;0.70;;;24.50;51.00;;;;;;5037876;28;20369;-61
2021/08/03 03:20:24;;;;;;;1.27;0.80;;;24.50;51.10;;;;;;5036360;28;20041;-67
2021/08/03 03:22:53;;;;;;;1.05;0.70;;;24.50;51.50;;;;;;5043907;28;20033;-62
2021/08/03 03:25:21;;;;;;;;;;;24.50;51.00;;;;;;5033578;28;20358;-62
2021/08/03 03:27:49;;;;;;;0.93;0.70;;;24.50;51.00;;;;;;5032630;28;19940;-62
2021/08/03 03:30:16;;;;;;;0.88;0.70;;;24.50;51.00;;;;;;5035289;28;20017;-59
2021/08/03 03:32:45;;;;;;;1.27;0.80;;;24.50;51.00;;;;;;5030350;28;20033;-63
2021/08/03 03:35:12;;;;;;;0.80;0.70;;;24.50;51.10;;;;;;5033021;28;20051;-64
2021/08/03 03:37:40;;;;;;;0.90;0.70;;;24.50;51.10;;;;;;5036020;28;20154;-62
2021/08/03 03:40:06;;;;;;;0.85;0.60;;;24.40;51.00;;;;;;5032558;28;20036;-65
2021/08/03 03:42:34;;;;;;;0.80;0.70;;;24.40;51.00;;;;;;5035791;28;20068;-62
2021/08/03 03:45:01;;;;;;;1.00;0.70;;;24.40;51.00;;;;;;5028954;28;20047;-63
2021/08/03 03:47:34;;;;;;;0.77;0.60;;;24.50;51.10;;;;;;5029396;28;20033;-60
2021/08/03 03:50:12;;;;;;;1.10;0.65;;;24.40;51.00;;;;;;5029683;28;20068;-62
2021/08/03 03:52:52;;;;;;;0.85;0.60;;;24.40;51.00;;;;;;5029449;28;20039;-64
2021/08/03 03:55:21;;;;;;;0.85;0.70;;;24.40;51.00;;;;;;5032464;28;20029;-63
2021/08/03 03:57:47;;;;;;;0.60;0.60;;;24.40;51.10;;;;;;5032619;28;20472;-64
2021/08/03 04:00:14;;;;;;;0.95;0.70;;;24.40;51.10;;;;;;5033386;28;20427;-61
2021/08/03 04:02:42;;;;;;;0.98;0.70;;;24.40;51.10;;;;;;5028142;28;20034;-61
2021/08/03 04:05:15;;;;;;;0.82;0.60;;;24.40;51.10;;;;;;5018765;28;20068;-63
2021/08/03 04:07:49;;;;;;;0.90;0.65;;;24.40;51.10;;;;;;5012524;28;20057;-65
2021/08/03 04:10:19;;;;;;;0.77;0.60;;;24.40;51.10;;;;;;5026332;28;20026;-64
2021/08/03 04:12:46;;;;;;;1.27;0.70;;;24.40;51.10;;;;;;5035734;28;20112;-62
2021/08/03 04:15:13;;;;;;;0.93;0.50;;;24.40;51.20;;;;;;5029761;28;20481;-63
2021/08/03 04:17:39;;;;;;;0.88;0.60;;;24.40;51.20;;;;;;5031809;28;20029;-62
2021/08/03 04:20:05;;;;;;;1.02;0.70;;;24.40;51.20;;;;;;5034674;28;20358;-62
2021/08/03 04:22:31;;;;;;;1.20;0.70;;;24.40;51.20;;;;;;5027770;28;20048;-63
2021/08/03 04:24:56;;;;;;;1.08;0.70;;;24.30;51.10;;;;;;5028303;28;20033;-61
2021/08/03 04:27:22;;;;;;;0.75;0.70;;;24.30;51.10;;;;;;5026939;28;20111;-62
2021/08/03 04:29:47;;;;;;;0.60;0.57;;;24.30;51.20;;;;;;5046147;28;20310;-58
2021/08/03 04:32:13;;;;;;;0.60;0.60;;;24.30;51.20;;;;;;5026353;28;20053;-62
2021/08/03 04:34:39;;;;;;;0.77;0.70;;;24.30;51.20;;;;;;5031904;28;20428;-61
2021/08/03 04:37:04;;;;;;;0.80;0.70;;;24.30;51.20;;;;;;5028302;28;20039;-61
2021/08/03 04:39:30;;;;;;;0.85;0.70;;;24.30;51.20;;;;;;5023574;28;20155;-59
2021/08/03 04:41:56;;;;;;;0.90;0.70;;;24.30;51.20;;;;;;5025395;28;20030;-61
2021/08/03 04:44:22;;;;;;;0.80;0.60;;;24.30;51.20;;;;;;5031636;28;20464;-62
2021/08/03 04:46:47;;;;;;;0.88;0.70;;;24.30;51.20;;;;;;5034755;28;20032;-64
2021/08/03 04:49:13;;;;;;;1.45;0.60;;;24.30;51.20;;;;;;5038271;28;20567;-63
2021/08/03 04:51:38;;;;;;;0.90;0.65;;;24.30;51.20;;;;;;5025643;28;20126;-63
2021/08/03 04:54:04;;;;;;;0.93;0.65;;;24.30;51.20;;;;;;5019355;28;20378;-60
2021/08/03 04:56:30;;;;;;;0.60;0.60;;;24.30;51.20;;;;;;5022735;28;20048;-57
2021/08/03 04:58:56;;;;;;;0.68;0.60;;;24.30;51.20;;;;;;5034874;28;20040;-61
2021/08/03 05:01:21;;;;;;;1.17;0.63;;;24.30;51.20;;;;;;5022164;28;20041;-60
2021/08/03 05:03:47;;;;;;;0.63;0.60;;;24.20;51.20;;;;;;5028904;28;20030;-63
2021/08/03 05:06:12;;;;;;;1.13;0.68;;;24.30;51.30;;;;;;5036471;28;20127;-63
2021/08/03 05:08:38;;;;;;;1.38;0.70;;;24.30;51.30;;;;;;5030731;28;20056;-59
2021/08/03 05:11:04;;;;;;;0.60;0.60;;;24.30;51.30;;;;;;5034454;28;20618;-63
2021/08/03 05:13:29;;;;;;;0.60;0.60;;;24.30;51.30;;;;;;5028891;28;20053;-62
2021/08/03 05:15:55;;;;;;;0.70;0.50;;;24.30;51.30;;;;;;5032640;28;20025;-63
2021/08/03 05:18:21;;;;;;;0.60;0.60;;;24.30;51.30;;;;;;5039861;28;20025;-60
2021/08/03 05:20:47;;;;;;;1.08;0.70;;;24.20;51.20;;;;;;5036624;28;20049;-64
2021/08/03 05:23:12;;;;;;;0.80;0.70;;;24.20;51.30;;;;;;5041473;28;20044;-60
2021/08/03 05:25:38;;;;;;;0.63;0.60;;;24.20;51.20;;;;;;5029629;28;20095;-64
2021/08/03 05:28:04;;;;;;;1.33;0.80;;;24.20;51.20;;;;;;5026014;28;20639;-62
2021/08/03 05:30:29;;;;;;;0.73;0.68;;;24.20;51.30;;;;;;5024390;28;20425;-62
2021/08/03 05:32:55;;;;;;;0.60;0.60;;;24.30;51.30;;;;;;5026588;28;20065;-62
2021/08/03 05:35:21;;;;;;;0.60;0.60;;;24.20;51.30;;;;;;5024746;28;20034;-62
2021/08/03 05:37:46;;;;;;;0.70;0.60;;;24.20;51.30;;;;;;5024579;28;20037;-65
2021/08/03 05:40:13;;;;;;;0.63;0.60;;;24.20;51.30;;;;;;5026692;28;20132;-63
2021/08/03 05:42:39;;;;;;;0.70;0.60;;;24.20;51.30;;;;;;5020526;28;20040;-63
2021/08/03 05:45:05;;;;;;;0.65;0.60;;;24.20;51.30;;;;;;5028028;28;20047;-61
2021/08/03 05:47:31;;;;;;;0.90;0.70;;;24.20;51.30;;;;;;5028286;28;20029;-62
2021/08/03 05:49:57;;;;;;;1.25;0.60;;;24.20;51.30;;;;;;5021117;28;20384;-61
2021/08/03 05:52:22;;;;;;;0.80;0.63;;;24.20;50.90;;;;;;5019578;28;20033;-59
2021/08/03 05:54:48;;;;;;;0.85;0.70;;;24.20;50.30;;;;;;5023004;28;20033;-62
2021/08/03 05:57:14;;;;;;;0.60;0.60;;;24.10;49.70;;;;;;5016844;28;20500;-64
2021/08/03 05:59:39;;;;;;;0.73;0.70;;;24.00;49.70;;;;;;5007374;28;20046;-62
2021/08/03 06:02:05;;;;;;;1.02;0.73;;;23.90;49.30;;;;;;5008148;28;20425;-60
2021/08/03 06:04:31;;;;;;;0.55;0.55;;;23.70;49.00;;;;;;5018663;28;20036;-59
2021/08/03 06:06:57;;;;;;;1.20;0.70;;;23.60;49.60;;;;;;5019347;28;20041;-63
2021/08/03 06:09:27;;;;;;;1.40;0.77;;;23.50;49.70;;;;;;5020910;28;20076;-61
2021/08/03 06:11:53;;;;;;;1.30;0.80;;;23.40;49.90;;;;;;5014730;28;20029;-62
2021/08/03 06:14:44;;;;;;;1.42;0.70;;;23.20;49.90;;;;;;5021421;28;20395;-63
2021/08/03 06:17:13;;;;;;;1.50;0.80;;;23.00;50.20;;;;;;5019045;28;20038;-63
2021/08/03 06:19:45;;;;;;;1.63;1.00;;;22.90;50.80;;;;;;5022388;28;20034;-62
2021/08/03 06:22:12;;;;;;;0.82;0.70;;;22.80;51.10;;;;;;5017435;28;20042;-56
2021/08/03 06:24:39;;;;;;;1.30;0.80;;;22.80;51.10;;;;;;5023627;28;20108;-61
2021/08/03 06:27:10;;;;;;;1.50;1.00;;;22.80;51.30;;;;;;5014344;28;20041;-56
2021/08/03 06:29:38;;;;;;;1.05;0.90;;;22.50;52.00;;;;;;5023565;28;20179;-61
2021/08/03 06:32:05;;;;;;;2.72;1.20;;;22.40;52.40;;;;;;5019739;28;20047;-61
2021/08/03 06:34:33;;;;;;;0.98;0.80;;;22.30;52.40;;;;;;5024313;28;20041;-63
2021/08/03 06:36:58;;;;;;;1.15;0.80;;;22.40;52.50;;;;;;5023873;28;20041;-61
2021/08/03 06:39:24;;;;;;;1.33;0.80;;;22.50;52.20;;;;;;5019713;28;20034;-64
2021/08/03 06:41:56;;;;;;;1.33;0.80;;;22.60;52.00;;;;;;5023520;28;20038;-63
2021/08/03 06:44:23;;;;;;;1.50;0.82;;;22.70;51.80;;;;;;5024073;28;20212;-62
2021/08/03 06:46:54;;;;;;;1.13;0.75;;;22.70;51.60;;;;;;5028539;28;20877;-65
2021/08/03 06:49:22;;;;;;;1.05;0.90;;;22.80;51.50;;;;;;5028103;28;20147;-58
2021/08/03 06:51:51;;;;;;;0.88;0.70;;;22.80;51.40;;;;;;5025222;28;20034;-62
2021/08/03 06:54:17;;;;;;;1.77;0.70;;;22.90;51.40;;;;;;5027167;28;20029;-61
2021/08/03 06:56:55;;;;;;;0.90;0.70;;;23.00;51.40;;;;;;5028952;28;20443;-62
2021/08/03 06:59:32;;;;;;;0.85;0.60;;;23.00;51.40;;;;;;5023528;28;20120;-62
2021/08/03 07:02:06;;;;;;;0.60;0.60;;;23.00;51.40;;;;;;5021386;28;20041;-64
2021/08/03 07:04:47;;;;;;;0.73;0.60;;;23.00;51.40;;;;;;5025200;28;20041;-62
2021/08/03 07:07:14;;;;;;;0.88;0.70;;;23.00;51.30;;;;;;5025045;28;20040;-62
2021/08/03 07:09:42;;;;;;;0.90;0.68;;;23.00;51.40;;;;;;5016789;28;20331;-64
2021/08/03 07:12:10;;;;;;;0.82;0.60;;;23.00;51.30;;;;;;5019415;28;20132;-64
2021/08/03 07:14:37;;;;;;;0.95;0.68;;;23.00;51.40;;;;;;5031446;28;20146;-62
2021/08/03 07:17:05;;;;;;;0.60;0.60;;;23.10;51.40;;;;;;5027325;28;20025;-64
2021/08/03 07:19:32;;;;;;;1.10;0.60;;;23.00;51.30;;;;;;5025222;28;20676;-61
2021/08/03 07:21:58;;;;;;;0.70;0.70;;;23.10;51.30;;;;;;5022907;28;20040;-62
2021/08/03 07:24:24;;;;;;;0.75;0.60;;;23.10;51.30;;;;;;5021953;28;20034;-64
2021/08/03 07:26:50;;;;;;;1.63;0.70;;;23.10;51.30;;;;;;5022642;28;20480;-62
2021/08/03 07:29:16;;;;;;;0.73;0.70;;;23.10;51.30;;;;;;5023586;28;20029;-59
2021/08/03 07:31:42;;;;;;;0.70;0.60;;;23.10;51.40;;;;;;5025901;28;20022;-61
2021/08/03 07:34:11;;;;;;;0.60;0.60;;;23.10;51.40;;;;;;5024633;28;20025;-62
2021/08/03 07:36:37;;;;;;;;;;;23.10;51.40;;;;;;5025244;28;20025;-60
2021/08/03 07:39:07;;;;;;;0.80;0.80;;;23.10;51.40;;;;;;5030924;28;19957;-64
2021/08/03 07:41:34;;;;;;;1.05;0.70;;;23.10;51.40;;;;;;5026052;28;20092;-62
2021/08/03 07:44:00;;;;;;;1.15;0.65;;;23.10;51.40;;;;;;5024937;28;20137;-62
2021/08/03 07:46:27;;;;;;;1.30;0.70;;;23.10;51.40;;;;;;5024845;28;20108;-59
2021/08/03 07:48:54;;;;;;;1.98;0.85;;;23.20;51.50;;;;;;5022498;28;20033;-62
2021/08/03 07:51:21;;;;;;;2.08;0.82;;;23.10;51.50;;;;;;5028897;28;20063;-61
2021/08/03 07:53:47;;;;;;;1.70;0.70;;;23.20;51.50;;;;;;5024941;28;20481;-61
2021/08/03 07:56:14;;;;;;;1.83;0.80;;;23.20;51.50;;;;;;5020667;28;20032;-62
2021/08/03 07:58:41;;;;;;;2.78;0.80;;;23.20;51.50;;;;;;5022817;28;20029;-62
2021/08/03 08:01:07;;;;;;;1.75;0.70;;;23.20;52.00;;;;;;5008239;28;20034;-62
2021/08/03 08:03:34;;;;;;;1.50;0.77;;;23.20;51.50;;;;;;5024525;28;20496;-59
2021/08/03 08:06:01;;;;;;;1.02;0.80;;;23.20;51.50;;;;;;5026028;28;20544;-61
2021/08/03 08:08:26;;;;;;;1.75;1.00;;;23.20;51.50;;;;;;5020019;28;20069;-61
2021/08/03 08:10:52;;;;;;;1.23;0.80;;;23.20;51.50;;;;;;5016838;28;20073;-62
2021/08/03 08:13:18;;;;;;;1.63;0.80;;;23.20;51.60;;;;;;5009474;28;20091;-61
2021/08/03 08:15:44;;;;;;;1.55;0.70;;;23.20;51.60;;;;;;5011926;28;20049;-62
2021/08/03 08:18:10;;;;;;;1.98;0.93;;;23.20;51.60;;;;;;5019228;28;20039;-62
2021/08/03 08:20:37;;;;;;;1.70;0.82;;;23.20;51.60;;;;;;5023805;28;20041;-62
2021/08/03 08:23:03;;;;;;;2.30;1.10;;;23.20;51.60;;;;;;5025408;28;20522;-61
2021/08/03 08:25:29;;;;;;;2.13;0.90;;;23.20;51.60;;;;;;5024994;28;20041;-63
2021/08/03 08:27:55;;;;;;;2.58;1.13;;;23.20;51.60;;;;;;5024665;28;20409;-61
2021/08/03 08:30:21;;;;;;;1.85;0.95;;;23.30;51.70;;;;;;5020958;28;20033;-62
2021/08/03 08:32:46;;;;;;;2.47;1.02;;;23.30;51.70;;;;;;5021044;28;20045;-63
2021/08/03 08:35:12;;;;;;;2.20;1.00;;;23.30;51.70;;;;;;5022430;28;20494;-61
2021/08/03 08:37:38;;;;;;;2.72;1.00;;;23.30;52.20;;;;;;5022302;28;20087;-59
2021/08/03 08:40:06;;;;;;;2.67;0.80;;;23.30;51.70;;;;;;5023382;28;20179;-62
2021/08/03 08:42:32;;;;;;;2.22;0.88;;;23.30;51.60;;;;;;5024835;28;20136;-61
2021/08/03 08:44:59;;;;;;;3.08;1.30;;;23.30;51.70;;;;;;5020174;28;20022;-62
2021/08/03 08:47:26;;;;;;;2.20;0.90;;;23.30;51.60;;;;;;5021047;28;20772;-59
2021/08/03 08:49:53;;;;;;;1.67;0.98;;;23.30;51.60;;;;;;5021490;28;20025;-62
2021/08/03 08:52:19;;;;;;;2.38;1.10;;;23.30;51.60;;;;;;5020599;28;20152;-62
2021/08/03 08:54:45;;;;;;;1.42;0.80;;;23.30;51.60;;;;;;5016991;28;20100;-63
2021/08/03 08:57:10;;;;;;;2.35;0.95;;;23.40;51.70;;;;;;5020474;28;20110;-61
2021/08/03 08:59:36;;;;;;;1.60;0.90;;;23.30;51.60;;;;;;5015144;28;20049;-63
2021/08/03 09:02:03;;;;;;;2.47;1.13;;;23.30;51.60;;;;;;5019594;28;20462;-62
2021/08/03 09:04:29;;;;;;;1.35;0.82;;;23.30;51.60;;;;;;5020283;28;20033;-62
2021/08/03 09:07:06;;;;;;;1.45;0.88;;;23.30;51.60;;;;;;5018135;28;20040;-62
2021/08/03 09:09:44;;;;;;;3.33;1.00;;;23.40;51.60;;;;;;5019296;28;20068;-61
2021/08/03 09:12:10;;;;;;;2.05;1.00;;;23.40;51.60;;;;;;5020810;28;20116;-63
2021/08/03 09:14:41;;;;;;;1.98;0.98;;;23.40;51.60;;;;;;5021533;28;20031;-61
2021/08/03 09:17:08;;;;;;;2.55;1.00;;;23.40;51.60;;;;;;5018462;28;20040;-62
2021/08/03 09:19:42;;;;;;;1.80;0.90;;;23.40;51.60;;;;;;5021173;28;20047;-60
2021/08/03 09:22:20;;;;;;;1.83;0.80;;;23.40;51.60;;;;;;5013557;28;20121;-60
2021/08/03 09:24:48;;;;;;;1.30;0.88;;;23.40;51.60;;;;;;5020435;28;20203;-63
2021/08/03 09:27:36;;;;;;;1.58;0.90;;;23.40;51.60;;;;;;5019887;28;20120;-62
2021/08/03 09:30:02;;;;;;;1.73;1.00;;;23.40;51.50;;;;;;5022362;28;20030;-62
2021/08/03 09:32:32;;;;;;;1.63;0.80;;;23.40;51.50;;;;;;5020508;28;20033;-62
2021/08/03 09:35:05;;;;;;;1.85;0.88;;;23.40;51.50;;;;;;5021143;28;20037;-61
2021/08/03 09:37:33;;;;;;;1.85;1.10;;;23.40;51.50;;;;;;5015795;28;20469;-62
2021/08/03 09:39:59;;;;;;;1.60;1.00;;;23.40;51.50;;;;;;5022206;28;20120;-63
2021/08/03 09:42:27;;;;;;;1.77;0.95;;;23.40;51.50;;;;;;5024098;28;20415;-62
2021/08/03 09:45:01;;;;;;;1.88;0.90;;;23.50;51.60;;;;;;5020257;28;20535;-61
2021/08/03 09:47:31;;;;;;;1.52;0.88;;;23.50;51.60;;;;;;5019240;28;20033;-60
2021/08/03 09:49:59;;;;;;;1.73;1.00;;;23.50;51.60;;;;;;5023522;28;20576;-61
2021/08/03 09:52:29;;;;;;;1.92;1.10;;;23.50;51.60;;;;;;5008271;28;20037;-61
2021/08/03 09:55:19;;;;;;;1.83;0.95;;;23.50;52.10;;;;;;5020751;28;20030;-62
2021/08/03 09:57:47;;;;;;;1.60;0.80;;;23.50;51.60;;;;;;5020994;28;20060;-60
2021/08/03 10:00:34;;;;;;;1.67;0.93;;;23.50;51.60;;;;;;5020090;28;20457;-60
2021/08/03 10:03:00;;;;;;;2.03;0.90;;;23.50;51.60;;;;;;5020282;28;20148;-61
2021/08/03 10:05:26;;;;;;;2.00;0.90;;;23.50;51.60;;;;;;5021386;28;20098;-62
2021/08/03 10:07:53;;;;;;;2.00;1.20;;;23.50;51.60;;;;;;5021863;28;20377;-61
2021/08/03 10:10:19;;;;;;;1.55;0.95;;;23.50;51.60;;;;;;5021643;28;20091;-61
2021/08/03 10:12:45;;;;;;;1.50;0.90;;;23.50;51.60;;;;;;5020948;28;20477;-61
2021/08/03 10:15:12;;;;;;;1.52;0.90;;;23.50;51.70;;;;;;5023536;28;20088;-62
2021/08/03 10:17:39;;;;;;;1.77;0.90;;;23.50;51.70;;;;;;5026159;28;20111;-61
2021/08/03 10:20:09;;;;;;;2.08;0.90;;;23.50;51.70;;;;;;5024558;28;20117;-62
2021/08/03 10:22:40;;;;;;;1.80;1.00;;;23.50;51.60;;;;;;5025981;28;20029;-62
2021/08/03 10:25:12;;;;;;;1.83;0.90;;;23.50;51.70;;;;;;5024224;28;20116;-61
2021/08/03 10:27:52;;;;;;;1.30;0.90;;;23.50;51.70;;;;;;5023111;28;20061;-61
2021/08/03 10:30:27;;;;;;;2.15;0.95;;;23.50;51.70;;;;;;5025373;28;20026;-63
2021/08/03 10:32:53;;;;;;;1.10;0.70;;;23.50;51.70;;;;;;5025696;28;20049;-63
2021/08/03 10:35:37;;;;;;;1.75;1.30;;;23.60;51.70;;;;;;5024579;28;20065;-61
2021/08/03 10:38:02;;;;;;;1.52;0.80;;;23.60;51.70;;;;;;5021416;28;20106;-61
2021/08/03 10:41:16;;;;;;;2.00;1.00;;;23.60;51.70;;;;;;5024860;28;20037;-60
2021/08/03 10:43:48;;;;;;;1.23;0.80;;;23.60;51.70;;;;;;4993995;28;20070;-61
2021/08/03 10:46:14;;;;;;;1.38;0.90;;;23.60;51.70;;;;;;5021861;28;20034;-61
2021/08/03 10:48:39;;;;;;;0.98;0.80;;;23.60;51.70;;;;;;5024456;28;20095;-62
2021/08/03 10:51:16;;;;;;;1.70;0.90;;;23.60;51.70;;;;;;5023561;28;20069;-61
2021/08/03 10:53:54;;;;;;;1.65;0.90;;;23.60;51.70;;;;;;5012566;28;20033;-62
2021/08/03 10:56:19;;;;;;;1.08;0.90;;;23.60;51.70;;;;;;5021210;28;20040;-61
2021/08/03 10:58:45;;;;;;;1.83;0.80;;;23.60;52.20;;;;;;5023200;28;20033;-62
2021/08/03 11:01:31;;;;;;;2.47;0.90;;;23.60;51.70;;;;;;5021344;28;20090;-61
2021/08/03 11:03:57;;;;;;;1.23;0.77;;;23.60;51.70;;;;;;5020015;28;20076;-62
2021/08/03 11:06:22;;;;;;;1.45;0.85;;;23.60;51.70;;;;;;5020527;28;20033;-60
2021/08/03 11:08:48;;;;;;;1.73;0.90;;;23.60;51.70;;;;;;5025122;28;20083;-62
2021/08/03 11:11:23;;;;;;;1.80;0.90;;;23.60;51.70;;;;;;5026555;28;20772;-62
2021/08/03 11:13:52;;;;;;;1.45;0.80;;;23.60;51.70;;;;;;5023255;28;20025;-62
2021/08/03 11:16:20;;;;;;;1.60;0.80;;;23.60;51.70;;;;;;5020454;28;20075;-61
2021/08/03 11:18:48;;;;;;;1.67;0.70;;;23.60;51.70;;;;;;5021940;28;20061;-62
2021/08/03 11:21:18;;;;;;;1.50;0.80;;;23.60;51.70;;;;;;5023541;28;20029;-62
2021/08/03 11:24:09;;;;;;;1.23;0.85;;;23.60;51.70;;;;;;5023129;28;20037;-62
2021/08/03 11:26:39;;;;;;;2.55;0.90;;;23.60;51.70;;;;;;5021537;28;20113;-62
2021/08/03 11:29:14;;;;;;;1.15;0.70;;;23.60;51.70;;;;;;5021232;28;20037;-62
2021/08/03 11:31:40;;;;;;;1.58;0.88;;;23.60;51.70;;;;;;5015261;28;20901;-60
2021/08/03 11:34:07;;;;;;;1.20;0.90;;;23.60;51.70;;;;;;5024872;28;20108;-62
2021/08/03 11:36:33;;;;;;;1.25;0.80;;;23.60;51.70;;;;;;5017744;28;20488;-63
2021/08/03 11:38:59;;;;;;;1.00;0.60;;;23.60;51.70;;;;;;5025656;28;20095;-61
2021/08/03 11:41:25;;;;;;;1.63;0.90;;;23.60;51.70;;;;;;5020027;28;20033;-62
2021/08/03 11:43:52;;;;;;;1.10;0.80;;;23.60;51.70;;;;;;5017104;28;20037;-62
2021/08/03 11:46:28;;;;;;;1.15;0.70;;;23.70;51.70;;;;;;5019941;28;20029;-61
2021/08/03 11:49:04;;;;;;;1.10;0.80;;;23.70;51.70;;;;;;5019978;28;20029;-63
2021/08/03 11:51:43;;;;;;;0.88;0.70;;;23.60;51.70;;;;;;5019782;28;20037;-62
2021/08/03 11:54:13;;;;;;;;;;;23.70;51.70;;;;;;5022829;28;20021;-62
2021/08/03 11:56:39;;;;;;;0.95;0.70;;;23.70;51.70;;;;;;5014529;28;20009;-63
2021/08/03 11:59:05;;;;;;;1.33;0.80;;;23.70;51.70;;;;;;5024708;28;20475;-62
2021/08/03 12:01:49;;;;;;;0.70;0.70;;;23.70;51.80;;;;;;5023601;28;20631;-61
2021/08/03 12:04:22;;;;;;;1.05;0.70;;;23.70;51.80;;;;;;5022651;28;20109;-62
2021/08/03 12:06:50;;;;;;;2.55;0.80;;;23.70;51.80;;;;;;5022315;28;20111;-62
2021/08/03 12:09:18;;;;;;;0.98;0.80;;;23.70;51.90;;;;;;5023073;28;20030;-63
2021/08/03 12:11:45;;;;;;;1.20;0.73;;;23.70;51.90;;;;;;5018124;28;20034;-64
2021/08/03 12:14:17;;;;;;;1.02;0.80;;;23.70;51.90;;;;;;5023718;28;20087;-61
2021/08/03 12:16:43;;;;;;;0.80;0.70;;;23.70;51.90;;;;;;5018805;28;20030;-60
2021/08/03 12:19:33;;;;;;;1.80;0.85;;;23.70;51.90;;;;;;5023616;28;20079;-62
2021/08/03 12:21:59;;;;;;;2.47;0.80;;;23.70;51.90;;;;;;5018516;28;20056;-63
2021/08/03 12:24:25;;;;;;;1.45;0.88;;;23.70;51.90;;;;;;5017393;28;20167;-63
2021/08/03 12:27:13;;;;;;;1.08;0.70;;;23.70;51.90;;;;;;5018855;28;20045;-63
2021/08/03 12:29:38;;;;;;;1.95;0.70;;;23.70;51.90;;;;;;5019403;28;20029;-63
2021/08/03 12:32:05;;;;;;;1.23;0.80;;;23.70;51.90;;;;;;5012162;28;20148;-62
2021/08/03 12:34:36;;;;;;;1.23;0.77;;;23.70;51.90;;;;;;5016884;28;20108;-63
2021/08/03 12:37:02;;;;;;;3.58;0.90;;;23.80;52.00;;;;;;5022385;28;20029;-64
2021/08/03 12:39:45;;;;;;;1.33;0.90;;;23.80;52.00;;;;;;5023130;28;20025;-64
2021/08/03 12:42:31;;;;;;;1.20;0.80;;;23.80;52.00;;;;;;5017329;28;20729;-63
2021/08/03 12:45:14;;;;;;;1.20;0.70;;;23.70;52.10;;;;;;5020680;28;20089;-61
2021/08/03 12:47:58;;;;;;;1.67;0.77;;;23.80;52.30;;;;;;5026482;28;20052;-64
2021/08/03 12:50:24;;;;;;;1.88;0.77;;;23.80;52.30;;;;;;5025582;28;20029;-63
2021/08/03 12:52:55;;;;;;;1.65;0.80;;;23.80;52.20;;;;;;5018757;28;20029;-61
2021/08/03 12:55:30;;;;;;;1.20;0.80;;;23.80;52.30;;;;;;5019169;28;20021;-64
2021/08/03 12:57:57;;;;;;;1.27;0.80;;;23.90;52.30;;;;;;5013924;28;20037;-63
2021/08/03 13:00:32;;;;;;;2.45;0.90;;;23.80;52.30;;;;;;5023783;28;20108;-62